Time;durP1;ratioP1;P1;durP2;ratioP2;P2;SDS_P1;SDS_P2;PMS_P1;PMS_P2;Temp;Humidity;BMP_temperature;BMP_pressure;BME280_temperature;BME280_humidity;BME280_pressure;Samples;Min_cycle;Max_cycle;Signal;HPM_P1;HPM_P2
2023/01/13 00:01:21;;;;;;;5.60;1.00;;;11.30;79.30;;;;;;5048070;28;20470;-69
2023/01/13 00:03:49;;;;;;;3.63;1.00;;;11.30;79.30;;;;;;5045071;28;20984;-68
2023/01/13 00:06:20;;;;;;;4.10;0.90;;;11.30;79.30;;;;;;5053544;28;20478;-69
2023/01/13 00:08:50;;;;;;;5.50;1.00;;;11.30;79.40;;;;;;5053117;28;20483;-67
2023/01/13 00:11:19;;;;;;;6.30;1.50;;;11.30;79.40;;;;;;5058274;28;20491;-69
2023/01/13 00:13:47;;;;;;;7.07;1.10;;;11.30;79.40;;;;;;5048328;28;20518;-67
2023/01/13 00:16:18;;;;;;;5.40;1.17;;;11.30;79.40;;;;;;5048531;28;20505;-68
2023/01/13 00:18:48;;;;;;;4.90;1.00;;;11.30;79.40;;;;;;5047269;28;20461;-67
2023/01/13 00:21:17;;;;;;;7.40;1.40;;;11.30;79.40;;;;;;5052691;28;20467;-68
2023/01/13 00:23:46;;;;;;;5.30;1.13;;;11.30;79.30;;;;;;5052580;28;21468;-67
2023/01/13 00:26:17;;;;;;;4.57;0.90;;;11.30;79.30;;;;;;5050134;28;20578;-67
2023/01/13 00:28:45;;;;;;;7.27;1.53;;;11.30;79.30;;;;;;5048343;28;20474;-68
2023/01/13 00:31:15;;;;;;;4.20;1.17;;;11.30;79.40;;;;;;5044765;28;20459;-68
2023/01/13 00:33:45;;;;;;;5.27;1.10;;;11.30;79.30;;;;;;5038173;28;20464;-68
2023/01/13 00:36:14;;;;;;;4.20;1.30;;;11.40;79.30;;;;;;5044615;28;20548;-68
2023/01/13 00:38:43;;;;;;;4.30;0.77;;;11.40;79.20;;;;;;5046320;28;20482;-68
2023/01/13 00:41:13;;;;;;;4.23;1.73;;;11.30;79.20;;;;;;5040906;28;20539;-67
2023/01/13 00:43:41;;;;;;;4.03;1.10;;;11.30;79.30;;;;;;5043049;28;20464;-68
2023/01/13 00:46:11;;;;;;;4.77;1.70;;;11.30;79.30;;;;;;5052162;28;21015;-68
2023/01/13 00:48:39;;;;;;;8.33;1.50;;;11.30;79.30;;;;;;5049940;28;20479;-68
2023/01/13 00:51:11;;;;;;;4.17;1.30;;;11.40;79.30;;;;;;5046710;28;20495;-67
2023/01/13 00:53:42;;;;;;;4.20;1.00;;;11.40;79.30;;;;;;5045731;28;20507;-69
2023/01/13 00:56:14;;;;;;;9.57;1.00;;;11.40;79.10;;;;;;5045897;28;20579;-67
2023/01/13 00:58:45;;;;;;;3.83;1.03;;;11.40;79.10;;;;;;5042295;28;20452;-67
2023/01/13 01:01:16;;;;;;;4.90;1.10;;;11.40;79.00;;;;;;5049179;28;20483;-68
2023/01/13 01:03:46;;;;;;;5.90;1.10;;;11.40;79.00;;;;;;5044288;28;20976;-68
2023/01/13 01:06:18;;;;;;;3.93;1.07;;;11.50;78.80;;;;;;5049385;28;21061;-68
2023/01/13 01:08:46;;;;;;;5.93;1.03;;;11.50;78.90;;;;;;5047654;28;20535;-68
2023/01/13 01:11:16;;;;;;;3.70;0.63;;;11.40;79.00;;;;;;5048414;28;20458;-67
2023/01/13 01:13:45;;;;;;;4.47;1.30;;;11.50;78.90;;;;;;5046131;28;20867;-66
2023/01/13 01:16:16;;;;;;;4.80;0.93;;;11.50;78.90;;;;;;5038393;28;20524;-68
2023/01/13 01:18:46;;;;;;;4.47;1.30;;;11.40;79.00;;;;;;5041580;28;20477;-67
2023/01/13 01:21:17;;;;;;;5.17;1.10;;;11.40;79.00;;;;;;5046573;28;20494;-67
2023/01/13 01:23:45;;;;;;;3.90;0.80;;;11.50;79.00;;;;;;5046123;28;20451;-67
2023/01/13 01:26:15;;;;;;;4.03;0.80;;;11.50;79.00;;;;;;5045356;28;20479;-68
2023/01/13 01:28:45;;;;;;;6.87;1.50;;;11.40;79.10;;;;;;5048009;28;20534;-67
2023/01/13 01:31:16;;;;;;;3.70;0.97;;;11.40;79.00;;;;;;5045486;28;20520;-67
2023/01/13 01:33:46;;;;;;;3.67;0.80;;;11.40;79.00;;;;;;5043247;28;20567;-68
2023/01/13 01:36:17;;;;;;;3.53;1.23;;;11.50;78.90;;;;;;5047867;28;20475;-66
2023/01/13 01:38:46;;;;;;;3.70;1.10;;;11.50;78.90;;;;;;5040800;28;20511;-68
2023/01/13 01:41:16;;;;;;;2.80;0.70;;;11.50;78.90;;;;;;5048534;28;20468;-68
2023/01/13 01:44:01;;;;;;;4.33;0.97;;;11.50;78.90;;;;;;5051471;28;20454;-68
2023/01/13 01:46:32;;;;;;;3.47;0.80;;;11.50;78.90;;;;;;5046451;28;20488;-68
2023/01/13 01:49:06;;;;;;;3.93;1.03;;;11.50;79.00;;;;;;5046055;28;20459;-68
2023/01/13 01:51:40;;;;;;;4.60;0.80;;;11.50;79.00;;;;;;5049465;28;20470;-68
2023/01/13 01:54:12;;;;;;;3.83;0.90;;;11.50;79.10;;;;;;5047443;28;20459;-68
2023/01/13 01:56:43;;;;;;;3.10;0.63;;;11.50;79.00;;;;;;5045713;28;21018;-66
2023/01/13 01:59:12;;;;;;;4.70;1.33;;;11.50;79.10;;;;;;5044701;28;20516;-66
2023/01/13 02:01:41;;;;;;;4.60;1.00;;;11.50;79.20;;;;;;5035162;28;20496;-65
2023/01/13 02:04:14;;;;;;;3.07;0.70;;;11.50;79.20;;;;;;5037722;28;20458;-68
2023/01/13 02:06:45;;;;;;;4.40;1.00;;;11.40;79.30;;;;;;5037571;28;20486;-68
2023/01/13 02:09:14;;;;;;;3.70;0.83;;;11.40;79.30;;;;;;5037366;28;20518;-65
2023/01/13 02:14:30;;;;;;;4.57;0.80;;;11.40;79.40;;;;;;5046389;28;20466;-68
2023/01/13 02:17:10;;;;;;;3.03;0.80;;;11.40;79.50;;;;;;5040203;28;20495;-68
2023/01/13 02:20:08;;;;;;;3.83;0.80;;;11.40;79.50;;;;;;5038290;28;20465;-68
2023/01/13 02:23:05;;;;;;;3.20;0.70;;;11.40;79.60;;;;;;5036953;28;20538;-67
2023/01/13 02:25:51;;;;;;;3.50;0.87;;;11.30;79.70;;;;;;5040822;28;20559;-67
2023/01/13 02:31:42;;;;;;;6.13;1.10;;;11.30;79.90;;;;;;5036353;28;20475;-66
2023/01/13 02:34:14;;;;;;;3.17;0.70;;;11.30;79.90;;;;;;5045693;28;21309;-66
2023/01/13 02:36:49;;;;;;;2.70;0.73;;;11.30;80.00;;;;;;5039275;28;20963;-68
2023/01/13 02:39:25;;;;;;;3.33;0.80;;;11.30;80.00;;;;;;5049455;28;20514;-68
2023/01/13 02:44:48;;;;;;;5.53;0.77;;;11.30;80.10;;;;;;5042797;28;20472;-67
2023/01/13 02:47:20;;;;;;;3.10;0.73;;;11.30;80.10;;;;;;5042439;28;20525;-67
2023/01/13 02:49:50;;;;;;;8.20;1.10;;;11.30;80.20;;;;;;5046058;28;21656;-68
2023/01/13 02:52:24;;;;;;;4.03;1.00;;;11.30;80.10;;;;;;5040937;28;20559;-65
2023/01/13 02:54:57;;;;;;;4.80;1.00;;;11.30;80.30;;;;;;5044420;28;20509;-68
2023/01/13 02:57:28;;;;;;;4.40;0.80;;;11.30;80.30;;;;;;5038893;28;20539;-68
2023/01/13 02:59:57;;;;;;;4.50;0.90;;;11.30;80.30;;;;;;5042890;28;20482;-67
2023/01/13 03:02:26;;;;;;;4.40;0.90;;;11.30;80.30;;;;;;5040152;28;20546;-67
2023/01/13 03:04:56;;;;;;;3.90;0.87;;;11.30;80.60;;;;;;5036990;28;20460;-67
2023/01/13 03:08:00;;;;;;;3.57;1.00;;;11.20;80.50;;;;;;5042417;28;20508;-68
2023/01/13 03:10:39;;;;;;;5.00;1.30;;;11.20;80.70;;;;;;5046953;28;21359;-66
2023/01/13 03:13:19;;;;;;;3.83;1.00;;;11.20;80.80;;;;;;5043118;28;20458;-68
2023/01/13 03:15:54;;;;;;;3.30;0.90;;;11.20;80.80;;;;;;5040308;28;20470;-66
2023/01/13 03:18:35;;;;;;;4.33;1.40;;;11.20;80.90;;;;;;5046063;28;21043;-66
2023/01/13 03:21:09;;;;;;;3.57;1.03;;;11.20;80.90;;;;;;5045033;28;20946;-68
2023/01/13 03:23:47;;;;;;;3.63;0.93;;;11.20;81.00;;;;;;5045920;28;20457;-68
2023/01/13 03:26:18;;;;;;;5.77;1.00;;;11.20;81.00;;;;;;5050666;28;20489;-67
2023/01/13 03:28:52;;;;;;;3.17;0.80;;;11.20;81.10;;;;;;5046390;28;20470;-67
2023/01/13 03:31:30;;;;;;;5.00;1.00;;;11.20;81.20;;;;;;5044536;28;20494;-67
2023/01/13 03:34:04;;;;;;;3.33;0.70;;;11.20;81.20;;;;;;5043849;28;20520;-66
2023/01/13 03:36:34;;;;;;;3.40;1.07;;;11.20;81.20;;;;;;5047997;28;20489;-67
2023/01/13 03:39:09;;;;;;;2.70;0.57;;;11.20;81.30;;;;;;5045715;28;20522;-68
2023/01/13 03:41:42;;;;;;;3.10;0.70;;;11.20;81.40;;;;;;5047134;28;20459;-68
2023/01/13 03:44:23;;;;;;;4.57;1.00;;;11.20;81.40;;;;;;5044284;28;21015;-65
2023/01/13 03:47:03;;;;;;;2.80;0.60;;;11.20;81.40;;;;;;5046171;28;20478;-67
2023/01/13 03:49:38;;;;;;;3.37;0.80;;;11.20;81.40;;;;;;5040900;28;20474;-67
2023/01/13 03:52:18;;;;;;;2.83;0.73;;;11.20;81.40;;;;;;5047366;28;21019;-66
2023/01/13 03:54:51;;;;;;;3.23;1.00;;;11.10;81.60;;;;;;5048865;28;20456;-69
2023/01/13 03:57:22;;;;;;;3.43;0.80;;;11.20;81.60;;;;;;5052298;28;20488;-67
2023/01/13 03:59:55;;;;;;;2.93;0.87;;;11.20;81.60;;;;;;5046167;28;20532;-67
2023/01/13 04:02:36;;;;;;;3.90;1.17;;;11.20;81.60;;;;;;5064074;28;20501;-68
2023/01/13 04:05:08;;;;;;;3.67;0.70;;;11.20;81.60;;;;;;5049956;28;20463;-66
2023/01/13 04:07:46;;;;;;;3.63;0.93;;;11.20;81.60;;;;;;5044566;28;20480;-67
2023/01/13 04:10:19;;;;;;;3.17;0.60;;;11.20;81.60;;;;;;5051536;28;20453;-66
2023/01/13 04:13:03;;;;;;;2.90;0.70;;;11.20;81.70;;;;;;5050273;28;20482;-67
2023/01/13 04:15:34;;;;;;;3.20;0.80;;;11.20;81.80;;;;;;5048748;28;20459;-67
2023/01/13 04:18:13;;;;;;;3.43;0.60;;;11.20;81.80;;;;;;5049371;28;20543;-66
2023/01/13 04:20:45;;;;;;;3.50;0.80;;;11.20;81.80;;;;;;5048573;28;20528;-67
2023/01/13 04:23:13;;;;;;;5.80;0.90;;;11.20;81.90;;;;;;5047771;28;20454;-68
2023/01/13 04:25:42;;;;;;;2.77;0.60;;;11.20;81.90;;;;;;5041774;28;20454;-66
2023/01/13 04:28:10;;;;;;;2.90;0.53;;;11.20;81.90;;;;;;5042821;28;20467;-68
2023/01/13 04:30:39;;;;;;;4.10;0.87;;;11.20;81.80;;;;;;5043919;28;20518;-68
2023/01/13 04:33:07;;;;;;;2.80;0.60;;;11.20;81.80;;;;;;5039525;28;20529;-66
2023/01/13 04:35:35;;;;;;;3.23;0.60;;;11.30;81.90;;;;;;5047977;28;20459;-68
2023/01/13 04:38:07;;;;;;;4.10;0.80;;;11.20;81.80;;;;;;5048035;28;20473;-67
2023/01/13 04:40:36;;;;;;;4.60;1.27;;;11.30;81.90;;;;;;5046273;28;20454;-66
2023/01/13 04:43:04;;;;;;;4.90;0.60;;;11.30;81.80;;;;;;5044060;28;20512;-68
2023/01/13 04:45:33;;;;;;;3.40;0.73;;;11.30;81.90;;;;;;5044003;28;20462;-69
2023/01/13 04:48:01;;;;;;;3.43;0.70;;;11.30;81.70;;;;;;5044344;28;20478;-66
2023/01/13 04:50:29;;;;;;;3.80;0.70;;;11.30;81.80;;;;;;5044923;28;20460;-67
2023/01/13 04:52:59;;;;;;;3.47;0.50;;;11.30;81.90;;;;;;5047491;28;20525;-68
2023/01/13 04:55:28;;;;;;;4.33;0.60;;;11.30;81.90;;;;;;5049880;28;20463;-68
2023/01/13 04:58:01;;;;;;;3.10;0.60;;;11.20;82.00;;;;;;5061259;28;21030;-67
2023/01/13 05:00:30;;;;;;;2.50;0.50;;;11.20;82.00;;;;;;5049355;28;20459;-67
2023/01/13 05:02:59;;;;;;;5.20;1.10;;;11.20;82.00;;;;;;5047669;28;20470;-68
2023/01/13 05:05:27;;;;;;;2.73;0.53;;;11.20;82.00;;;;;;5047460;28;20472;-68
2023/01/13 05:07:55;;;;;;;2.93;0.63;;;11.20;82.10;;;;;;5042800;28;20556;-67
2023/01/13 05:10:23;;;;;;;2.80;0.60;;;11.30;82.10;;;;;;5042588;28;20516;-66
2023/01/13 05:18:25;;;;;;;2.70;0.60;;;11.30;82.00;;;;;;5052801;28;20481;-68
2023/01/13 05:20:53;;;;;;;3.63;0.90;;;11.30;82.10;;;;;;5051520;28;20461;-67
2023/01/13 05:26:07;;;;;;;3.40;0.80;;;11.20;82.10;;;;;;5044683;28;20492;-68
2023/01/13 05:28:36;;;;;;;2.77;0.70;;;11.20;82.20;;;;;;5042504;28;21018;-68
2023/01/13 05:31:04;;;;;;;3.53;1.00;;;11.20;82.20;;;;;;5042866;28;20540;-68
2023/01/13 05:33:32;;;;;;;2.97;0.70;;;11.30;82.10;;;;;;5042027;28;20463;-68
2023/01/13 05:36:04;;;;;;;5.30;0.90;;;11.20;82.10;;;;;;5047947;28;20486;-67
2023/01/13 05:38:32;;;;;;;4.30;0.90;;;11.20;82.20;;;;;;5045666;28;20460;-67
2023/01/13 05:43:47;;;;;;;2.80;0.90;;;11.20;82.30;;;;;;5047114;28;20463;-68
2023/01/13 05:46:16;;;;;;;5.47;1.03;;;11.20;82.30;;;;;;5050184;28;21085;-67
2023/01/13 05:48:44;;;;;;;4.53;1.00;;;11.20;82.20;;;;;;5047165;28;20450;-67
2023/01/13 05:51:13;;;;;;;8.93;1.40;;;11.20;82.20;;;;;;5045672;28;20479;-68
2023/01/13 05:53:41;;;;;;;4.40;0.83;;;11.20;82.30;;;;;;5044754;28;20458;-68
2023/01/13 05:56:10;;;;;;;5.10;1.07;;;11.20;82.30;;;;;;5048956;28;20475;-68
2023/01/13 05:58:38;;;;;;;3.67;1.00;;;11.20;82.20;;;;;;5041322;28;20462;-67
2023/01/13 06:01:09;;;;;;;4.23;1.10;;;11.20;82.30;;;;;;5047681;28;20466;-68
2023/01/13 06:03:38;;;;;;;4.30;0.80;;;11.20;82.20;;;;;;5046862;28;20466;-67
2023/01/13 06:06:07;;;;;;;2.90;0.83;;;11.20;82.20;;;;;;5047820;28;20485;-67
2023/01/13 06:08:35;;;;;;;5.17;0.80;;;11.20;82.20;;;;;;5039363;28;20574;-68
2023/01/13 06:11:06;;;;;;;5.80;1.00;;;11.20;82.30;;;;;;5040715;28;20461;-67
2023/01/13 06:13:34;;;;;;;3.37;0.87;;;11.20;82.20;;;;;;5039807;28;21163;-68
2023/01/13 06:16:02;;;;;;;3.70;0.83;;;11.20;82.20;;;;;;5036697;28;20490;-68
2023/01/13 06:18:32;;;;;;;3.33;0.83;;;11.20;82.10;;;;;;5047861;28;20462;-68
2023/01/13 06:21:00;;;;;;;4.93;1.10;;;11.20;82.20;;;;;;5047687;28;20472;-67
2023/01/13 06:23:30;;;;;;;3.73;0.70;;;11.30;82.10;;;;;;5046138;28;21107;-67
2023/01/13 06:26:05;;;;;;;3.33;0.93;;;11.30;82.10;;;;;;5043516;28;20462;-67
2023/01/13 06:28:34;;;;;;;9.33;1.77;;;11.30;82.00;;;;;;5042143;28;20960;-67
2023/01/13 06:31:05;;;;;;;4.80;1.57;;;11.20;82.10;;;;;;5048342;28;20450;-68
2023/01/13 06:33:37;;;;;;;3.10;0.90;;;11.30;82.00;;;;;;5045162;28;20483;-67
2023/01/13 06:36:10;;;;;;;3.63;0.73;;;11.30;81.90;;;;;;5046730;28;20885;-66
2023/01/13 06:38:41;;;;;;;2.93;0.73;;;11.30;81.90;;;;;;5036105;28;20497;-68
2023/01/13 06:41:09;;;;;;;3.83;0.70;;;11.30;81.90;;;;;;5045256;28;20458;-67
2023/01/13 06:43:37;;;;;;;2.70;0.60;;;11.30;81.80;;;;;;5044005;28;20447;-68
2023/01/13 06:46:06;;;;;;;3.60;0.70;;;11.30;81.90;;;;;;5049560;28;20470;-67
2023/01/13 06:48:35;;;;;;;5.00;1.00;;;11.30;81.80;;;;;;5048112;28;20506;-67
2023/01/13 06:51:04;;;;;;;2.87;0.70;;;11.30;81.80;;;;;;5047463;28;21277;-67
2023/01/13 06:53:32;;;;;;;5.53;0.70;;;11.30;81.90;;;;;;5047532;28;20475;-64
2023/01/13 06:56:00;;;;;;;3.00;0.77;;;11.30;81.80;;;;;;5047937;28;20443;-66
2023/01/13 06:58:28;;;;;;;5.10;0.90;;;11.30;81.80;;;;;;5050139;28;21357;-70
2023/01/13 07:01:00;;;;;;;3.03;0.70;;;11.30;81.80;;;;;;5049159;28;20454;-72
2023/01/13 07:03:28;;;;;;;3.30;0.90;;;11.30;81.90;;;;;;5048861;28;20444;-70
2023/01/13 07:05:57;;;;;;;4.23;1.07;;;11.20;82.00;;;;;;5053452;28;20947;-71
2023/01/13 07:08:25;;;;;;;5.63;0.87;;;11.20;82.00;;;;;;5055611;28;20462;-70
2023/01/13 07:10:54;;;;;;;3.97;0.83;;;11.20;82.10;;;;;;5054329;28;20451;-68
2023/01/13 07:16:13;;;;;;;2.63;0.70;;;11.20;82.10;;;;;;5036652;28;20526;-70
2023/01/13 07:18:41;;;;;;;5.73;1.27;;;11.20;82.20;;;;;;5049318;28;20462;-71
2023/01/13 07:21:12;;;;;;;3.93;0.90;;;11.10;82.30;;;;;;5050480;28;20462;-70
2023/01/13 07:23:41;;;;;;;4.60;0.93;;;11.10;82.40;;;;;;5053350;28;20439;-71
2023/01/13 07:26:10;;;;;;;3.00;0.60;;;11.10;82.40;;;;;;5039919;28;20850;-69
2023/01/13 07:28:39;;;;;;;6.93;1.40;;;11.10;82.50;;;;;;5053209;28;21348;-71
2023/01/13 07:31:13;;;;;;;4.60;0.80;;;11.10;82.60;;;;;;5054806;28;21081;-71
2023/01/13 07:33:41;;;;;;;4.67;0.83;;;11.10;82.60;;;;;;5049607;28;20468;-70
2023/01/13 07:36:11;;;;;;;3.40;0.60;;;11.00;82.60;;;;;;5046802;28;20485;-70
2023/01/13 07:38:39;;;;;;;2.90;0.50;;;11.00;82.60;;;;;;5044101;28;20620;-71
2023/01/13 07:43:50;;;;;;;2.97;0.50;;;10.90;82.70;;;;;;5045125;28;20508;-73
2023/01/13 07:46:19;;;;;;;2.40;0.40;;;10.90;82.60;;;;;;5055195;28;20573;-71
2023/01/13 07:48:47;;;;;;;3.63;0.50;;;10.90;82.60;;;;;;5054222;28;20866;-70
2023/01/13 07:51:17;;;;;;;3.13;0.57;;;10.90;82.60;;;;;;5047906;28;20459;-69
2023/01/13 07:53:45;;;;;;;2.70;0.50;;;10.80;82.50;;;;;;5046886;28;20491;-71
2023/01/13 07:56:13;;;;;;;2.50;0.50;;;10.80;82.50;;;;;;5046630;28;20474;-69
2023/01/13 07:58:40;;;;;;;2.43;0.40;;;10.80;82.40;;;;;;5047046;28;20446;-70
2023/01/13 08:01:09;;;;;;;3.80;0.50;;;10.80;82.30;;;;;;5048463;28;20466;-68
2023/01/13 08:03:37;;;;;;;4.40;1.13;;;10.70;82.30;;;;;;5052565;28;20451;-69
2023/01/13 08:06:06;;;;;;;3.00;0.47;;;10.70;82.30;;;;;;5054210;28;20557;-71
2023/01/13 08:08:35;;;;;;;2.80;0.60;;;10.70;82.30;;;;;;5050016;28;20487;-70
2023/01/13 08:11:05;;;;;;;2.43;0.40;;;10.70;82.30;;;;;;5045595;28;20454;-68
2023/01/13 08:13:34;;;;;;;2.50;0.40;;;10.70;82.20;;;;;;5044584;28;21191;-69
2023/01/13 08:16:04;;;;;;;2.60;0.40;;;10.70;82.30;;;;;;5041762;28;20459;-70
2023/01/13 08:18:33;;;;;;;3.33;0.60;;;10.60;82.20;;;;;;5039502;28;20524;-70
2023/01/13 08:21:03;;;;;;;3.63;0.60;;;10.60;82.20;;;;;;5047009;28;20450;-69
2023/01/13 08:23:31;;;;;;;2.90;0.50;;;10.60;82.30;;;;;;5047980;28;20519;-71
2023/01/13 08:26:02;;;;;;;2.40;0.40;;;10.60;82.30;;;;;;5050191;28;20442;-69
2023/01/13 08:28:30;;;;;;;4.17;0.50;;;10.60;82.30;;;;;;5053201;28;20462;-70
2023/01/13 08:31:00;;;;;;;3.70;0.50;;;10.60;82.30;;;;;;5049015;28;20534;-72
2023/01/13 08:33:28;;;;;;;2.83;0.47;;;10.60;82.30;;;;;;5053775;28;20474;-68
2023/01/13 08:35:57;;;;;;;2.73;0.50;;;10.60;82.30;;;;;;5050499;28;20462;-70
2023/01/13 08:38:25;;;;;;;3.47;0.40;;;10.60;82.30;;;;;;5052788;28;20450;-71
2023/01/13 08:40:53;;;;;;;3.63;0.63;;;10.50;82.30;;;;;;5053605;28;20442;-70
2023/01/13 08:43:22;;;;;;;2.80;0.50;;;10.50;82.30;;;;;;5047433;28;20455;-70
2023/01/13 08:45:58;;;;;;;2.90;0.50;;;10.50;82.20;;;;;;5049653;28;20458;-68
2023/01/13 08:48:26;;;;;;;3.17;0.50;;;10.50;82.30;;;;;;5046484;28;20856;-68
2023/01/13 08:51:02;;;;;;;4.00;0.50;;;10.50;82.30;;;;;;5050410;28;20458;-69
2023/01/13 08:53:30;;;;;;;2.77;0.60;;;10.50;82.20;;;;;;5048798;28;20488;-69
2023/01/13 08:55:58;;;;;;;3.00;0.70;;;10.40;82.20;;;;;;5046443;28;20467;-70
2023/01/13 08:58:28;;;;;;;3.90;0.43;;;10.40;82.20;;;;;;5044866;28;20451;-69
2023/01/13 09:00:55;;;;;;;2.47;0.40;;;10.40;82.20;;;;;;5041971;28;21168;-71
2023/01/13 09:03:24;;;;;;;3.57;0.80;;;10.40;82.30;;;;;;5051870;28;20442;-71
2023/01/13 09:05:52;;;;;;;2.70;0.50;;;10.40;82.40;;;;;;5049728;28;20454;-70
2023/01/13 09:08:20;;;;;;;4.80;0.80;;;10.40;82.40;;;;;;5041335;28;20465;-72
2023/01/13 09:10:48;;;;;;;4.50;0.60;;;10.40;82.40;;;;;;5043125;28;20462;-71
2023/01/13 09:13:16;;;;;;;3.07;0.60;;;10.40;82.30;;;;;;5042829;28;20470;-71
2023/01/13 09:15:46;;;;;;;3.53;1.20;;;10.40;82.30;;;;;;5046685;28;20845;-71
2023/01/13 09:18:14;;;;;;;2.40;0.40;;;10.40;82.30;;;;;;5046353;28;20451;-69
2023/01/13 09:20:43;;;;;;;3.10;0.80;;;10.40;82.20;;;;;;5046314;28;20478;-69
2023/01/13 09:23:11;;;;;;;3.37;0.60;;;10.40;82.10;;;;;;5045980;28;20457;-67
2023/01/13 09:25:39;;;;;;;3.97;0.70;;;10.40;82.10;;;;;;5044668;28;20459;-73
2023/01/13 09:28:08;;;;;;;3.20;0.70;;;10.40;82.10;;;;;;5043681;28;20477;-69
2023/01/13 09:30:37;;;;;;;4.43;0.60;;;10.40;82.10;;;;;;5047083;28;21101;-69
2023/01/13 09:35:52;;;;;;;7.17;0.90;;;10.40;82.10;;;;;;5051035;28;20496;-67
2023/01/13 09:38:20;;;;;;;3.20;0.90;;;10.50;82.00;;;;;;5038220;28;20455;-69
2023/01/13 09:40:49;;;;;;;4.60;0.73;;;10.50;82.00;;;;;;5044770;28;20458;-70
2023/01/13 09:49:02;;;;;;;4.60;0.80;;;10.50;82.00;;;;;;5043519;28;20546;-70
2023/01/13 09:51:35;;;;;;;3.17;0.87;;;10.50;81.90;;;;;;5047293;28;20946;-68
2023/01/13 09:54:11;;;;;;;4.87;0.90;;;10.50;81.90;;;;;;5046236;28;21195;-70
2023/01/13 09:56:39;;;;;;;3.53;0.60;;;10.50;81.90;;;;;;5045929;28;20476;-69
2023/01/13 09:59:10;;;;;;;3.90;0.70;;;10.50;81.90;;;;;;5049006;28;20462;-71
2023/01/13 10:01:44;;;;;;;7.67;0.90;;;10.50;81.90;;;;;;5050084;28;21269;-71
2023/01/13 10:04:15;;;;;;;4.50;1.07;;;10.50;81.80;;;;;;5048661;28;21011;-69
2023/01/13 10:06:48;;;;;;;2.83;0.57;;;10.50;81.80;;;;;;5044295;28;20471;-71
2023/01/13 10:09:22;;;;;;;5.03;1.07;;;10.50;81.90;;;;;;5047207;28;20508;-71
2023/01/13 10:14:41;;;;;;;5.27;1.27;;;10.60;81.80;;;;;;5041104;28;20483;-70
2023/01/13 10:17:18;;;;;;;4.60;0.80;;;10.60;81.60;;;;;;5041543;28;20479;-69
2023/01/13 10:19:52;;;;;;;4.40;1.00;;;10.60;81.70;;;;;;5044079;28;20469;-71
2023/01/13 10:22:56;;;;;;;4.20;0.90;;;10.60;81.70;;;;;;5049691;28;20446;-69
2023/01/13 10:25:44;;;;;;;12.17;1.47;;;10.60;81.70;;;;;;4965661;28;20458;-68
2023/01/13 10:28:14;;;;;;;4.03;1.00;;;10.60;81.80;;;;;;5048751;28;20471;-69
2023/01/13 10:30:47;;;;;;;3.77;0.80;;;10.70;81.80;;;;;;5049341;28;21047;-70
2023/01/13 10:33:17;;;;;;;4.50;1.10;;;10.70;81.70;;;;;;5047160;28;20504;-70
2023/01/13 10:35:56;;;;;;;4.37;1.00;;;10.70;81.70;;;;;;5048893;28;20523;-69
2023/01/13 10:38:27;;;;;;;9.57;1.17;;;10.80;81.60;;;;;;5048616;28;20446;-69
2023/01/13 10:40:56;;;;;;;3.70;0.97;;;10.80;81.60;;;;;;5046830;28;21396;-70
2023/01/13 10:43:25;;;;;;;5.40;0.90;;;10.80;81.50;;;;;;5044882;28;21119;-69
2023/01/13 10:46:05;;;;;;;4.70;0.80;;;10.80;81.60;;;;;;5045251;28;20450;-72
2023/01/13 10:48:37;;;;;;;5.57;0.87;;;10.80;81.40;;;;;;5049008;28;20456;-70
2023/01/13 10:51:22;;;;;;;4.53;1.00;;;10.90;81.30;;;;;;5043521;28;20447;-69
2023/01/13 10:53:56;;;;;;;6.13;1.00;;;10.90;81.00;;;;;;5041969;28;20512;-71
2023/01/13 10:56:27;;;;;;;5.90;1.00;;;10.90;81.00;;;;;;5061398;28;21047;-68
2023/01/13 10:59:13;;;;;;;6.63;0.90;;;10.80;80.90;;;;;;5047675;28;20522;-71
2023/01/13 11:01:43;;;;;;;5.60;1.07;;;10.80;80.90;;;;;;5052293;28;20450;-70
2023/01/13 11:04:34;;;;;;;4.20;0.90;;;10.80;80.70;;;;;;5044169;28;20466;-68
2023/01/13 11:07:05;;;;;;;5.03;1.03;;;10.90;80.60;;;;;;5039952;28;21011;-71
2023/01/13 11:09:33;;;;;;;10.30;1.30;;;10.90;80.50;;;;;;5042282;28;20456;-69
2023/01/13 11:12:02;;;;;;;4.70;1.17;;;10.90;80.50;;;;;;5043081;28;20454;-69
2023/01/13 11:14:39;;;;;;;3.67;1.00;;;10.90;80.40;;;;;;5048707;28;20483;-71
2023/01/13 11:17:20;;;;;;;5.07;1.00;;;10.90;80.50;;;;;;5045933;28;20485;-71
2023/01/13 11:19:54;;;;;;;9.20;1.27;;;11.00;80.30;;;;;;5059861;28;20457;-73
2023/01/13 11:22:28;;;;;;;5.40;1.00;;;11.00;80.30;;;;;;5043672;28;20461;-71
2023/01/13 11:25:00;;;;;;;4.03;1.17;;;11.00;80.20;;;;;;5045442;28;20441;-70
2023/01/13 11:27:39;;;;;;;5.27;1.40;;;11.00;80.20;;;;;;5049672;28;20470;-69
2023/01/13 11:30:20;;;;;;;6.00;1.10;;;11.00;79.90;;;;;;5053259;28;20465;-70
2023/01/13 11:33:03;;;;;;;18.73;1.50;;;11.00;79.80;;;;;;5045902;28;20459;-72
2023/01/13 11:35:35;;;;;;;10.83;1.23;;;11.10;79.80;;;;;;5045153;28;20488;-70
2023/01/13 11:38:13;;;;;;;3.90;1.10;;;11.10;79.70;;;;;;5046064;28;20559;-71
2023/01/13 11:40:45;;;;;;;4.00;1.00;;;11.10;79.50;;;;;;5050213;28;20455;-70
2023/01/13 11:43:20;;;;;;;9.10;1.87;;;11.10;79.40;;;;;;5053232;28;20450;-71
2023/01/13 11:45:52;;;;;;;6.70;0.97;;;11.10;79.00;;;;;;5052807;28;20437;-70
2023/01/13 11:48:25;;;;;;;2.90;0.73;;;11.10;78.90;;;;;;5050915;28;20469;-70
2023/01/13 11:50:59;;;;;;;4.43;1.20;;;11.10;78.90;;;;;;5050353;28;20459;-71
2023/01/13 11:53:45;;;;;;;6.30;1.20;;;11.10;78.70;;;;;;5052114;28;20829;-69
2023/01/13 11:56:30;;;;;;;6.10;1.00;;;11.10;78.70;;;;;;5052021;28;20490;-70
2023/01/13 11:59:17;;;;;;;9.03;1.80;;;11.00;78.50;;;;;;5043471;28;20443;-70
2023/01/13 12:02:00;;;;;;;6.73;1.90;;;11.00;78.40;;;;;;5051759;28;20443;-69
2023/01/13 12:04:40;;;;;;;12.80;1.70;;;11.00;78.20;;;;;;5041862;28;20475;-71
2023/01/13 12:07:17;;;;;;;5.27;1.07;;;10.90;78.30;;;;;;5047604;28;20474;-70
2023/01/13 12:09:56;;;;;;;7.17;1.40;;;11.00;78.30;;;;;;5044997;28;20529;-71
2023/01/13 12:12:36;;;;;;;7.83;1.27;;;11.00;78.20;;;;;;5047688;28;20466;-69
2023/01/13 12:15:35;;;;;;;8.23;1.47;;;11.00;78.10;;;;;;5051551;28;20493;-70
2023/01/13 12:18:20;;;;;;;4.73;1.10;;;10.90;78.00;;;;;;5058550;28;20512;-68
2023/01/13 12:21:05;;;;;;;6.50;1.60;;;11.00;77.90;;;;;;5054640;28;20465;-72
2023/01/13 12:23:38;;;;;;;7.00;1.30;;;11.00;78.00;;;;;;5051932;28;20445;-71
2023/01/13 12:26:10;;;;;;;9.50;1.43;;;11.00;77.80;;;;;;5051782;28;20470;-70
2023/01/13 12:28:46;;;;;;;6.00;2.10;;;11.00;77.70;;;;;;5045655;28;21220;-70
2023/01/13 12:31:17;;;;;;;6.83;1.43;;;11.00;77.50;;;;;;5049447;28;20519;-72
2023/01/13 12:33:58;;;;;;;8.37;1.27;;;11.00;77.20;;;;;;5052359;28;20459;-70
2023/01/13 12:36:34;;;;;;;5.80;1.43;;;11.00;77.00;;;;;;5043800;28;20574;-69
2023/01/13 12:39:14;;;;;;;11.87;1.77;;;11.00;76.70;;;;;;5045775;28;20474;-70
2023/01/13 12:44:58;;;;;;;9.70;1.53;;;11.00;76.40;;;;;;4990750;28;20481;-71
2023/01/13 12:47:38;;;;;;;4.73;1.63;;;10.90;76.40;;;;;;5050869;28;20875;-71
2023/01/13 12:50:36;;;;;;;7.47;1.80;;;10.90;76.40;;;;;;5049045;28;20459;-70
2023/01/13 12:53:37;;;;;;;6.90;1.60;;;10.90;76.30;;;;;;5046042;28;21022;-70
2023/01/13 12:56:31;;;;;;;5.97;1.67;;;10.90;76.30;;;;;;5052201;28;20477;-70
2023/01/13 12:59:47;;;;;;;6.50;1.77;;;11.00;75.90;;;;;;5051733;28;20976;-69
2023/01/13 13:02:32;;;;;;;4.00;1.03;;;11.00;75.50;;;;;;5045423;28;20473;-70
2023/01/13 13:05:41;;;;;;;5.80;1.40;;;10.90;75.60;;;;;;5045207;28;20524;-69
2023/01/13 13:08:19;;;;;;;7.27;1.70;;;10.90;75.70;;;;;;5045622;28;21005;-71
2023/01/13 13:13:16;;;;;;;14.33;1.50;;;10.90;75.60;;;;;;5041686;28;20464;-70
2023/01/13 13:14:06;;;;;;;5.73;1.60;;;10.90;75.60;;;;;;5041994;28;20463;-70
2023/01/13 13:16:48;;;;;;;11.87;1.87;;;11.00;75.50;;;;;;5040487;28;20543;-70
2023/01/13 13:19:43;;;;;;;10.10;1.77;;;11.00;75.40;;;;;;5047048;28;21134;-70
2023/01/13 13:22:51;;;;;;;7.80;1.47;;;11.00;75.10;;;;;;5038836;28;20462;-70
2023/01/13 13:25:26;;;;;;;6.07;1.20;;;11.10;75.00;;;;;;5044499;28;20519;-70
2023/01/13 13:28:14;;;;;;;9.93;1.73;;;11.00;75.00;;;;;;5044151;28;20483;-70
2023/01/13 13:30:48;;;;;;;8.97;2.03;;;11.00;74.80;;;;;;5044290;28;20463;-69
2023/01/13 13:33:34;;;;;;;4.80;1.00;;;11.00;74.80;;;;;;5048395;28;20990;-69
2023/01/13 13:36:14;;;;;;;11.00;1.90;;;10.90;74.80;;;;;;5045179;28;20554;-70
2023/01/13 13:47:25;;;;;;;7.37;1.67;;;11.00;74.80;;;;;;5047037;28;20547;-70
2023/01/13 13:49:54;;;;;;;6.00;1.70;;;11.00;74.60;;;;;;5046674;28;20460;-70
2023/01/13 13:52:28;;;;;;;7.03;1.40;;;11.00;74.20;;;;;;5047453;28;20455;-69
2023/01/13 13:55:04;;;;;;;9.17;1.70;;;11.00;74.10;;;;;;5046836;28;20449;-70
2023/01/13 13:57:36;;;;;;;7.80;1.33;;;11.00;74.00;;;;;;5047434;28;21022;-70
2023/01/13 14:00:19;;;;;;;6.83;1.30;;;11.00;74.20;;;;;;5045242;28;20472;-70
2023/01/13 14:02:50;;;;;;;10.20;1.73;;;11.00;74.10;;;;;;5044645;28;21905;-70
2023/01/13 14:05:20;;;;;;;10.47;1.23;;;11.00;74.10;;;;;;5048364;28;20459;-70